sensor_id;sensor_type;location;lat;lon;timestamp;pressure;altitude;pressure_sealevel;temperature;humidity
5877;BME280;2964;42.144;24.730;2023-06-24T00:02:24;147383.16;;;23.46;80.69
5877;BME280;2964;42.144;24.730;2023-06-24T00:04:51;147342.63;;;23.29;80.97
5877;BME280;2964;42.144;24.730;2023-06-24T00:07:18;147331.19;;;23.25;81.59
5877;BME280;2964;42.144;24.730;2023-06-24T00:09:47;147345.13;;;23.30;81.40
5877;BME280;2964;42.144;24.730;2023-06-24T00:12:15;147404.72;;;23.55;80.54
5877;BME280;2964;42.144;24.730;2023-06-24T00:14:44;147444.06;;;23.70;79.65
5877;BME280;2964;42.144;24.730;2023-06-24T00:17:11;147444.06;;;23.70;79.11
5877;BME280;2964;42.144;24.730;2023-06-24T00:19:38;147431.38;;;23.65;78.47
5877;BME280;2964;42.144;24.730;2023-06-24T00:22:05;147426.28;;;23.63;78.88
5877;BME280;2964;42.144;24.730;2023-06-24T00:24:32;147345.13;;;23.30;79.31
5877;BME280;2964;42.144;24.730;2023-06-24T00:26:58;147331.19;;;23.25;78.93
5877;BME280;2964;42.144;24.730;2023-06-24T00:29:26;147385.72;;;23.47;78.44
5877;BME280;2964;42.144;24.730;2023-06-24T00:31:53;147369.22;;;23.40;78.81
5877;BME280;2964;42.144;24.730;2023-06-24T00:34:20;147348.94;;;23.32;79.24
5877;BME280;2964;42.144;24.730;2023-06-24T00:36:49;147350.19;;;23.32;78.89
5877;BME280;2964;42.144;24.730;2023-06-24T00:39:15;147336.25;;;23.27;79.39
5877;BME280;2964;42.144;24.730;2023-06-24T00:41:42;147308.38;;;23.16;79.95
5877;BME280;2964;42.144;24.730;2023-06-24T00:44:09;147324.88;;;23.22;79.29
5877;BME280;2964;42.144;24.730;2023-06-24T00:46:37;147317.25;;;23.19;79.56
5877;BME280;2964;42.144;24.730;2023-06-24T00:49:05;147337.50;;;23.27;79.22
5877;BME280;2964;42.144;24.730;2023-06-24T00:51:32;147326.13;;;23.23;79.24
5877;BME280;2964;42.144;24.730;2023-06-24T00:54:01;147300.75;;;23.12;79.31
5877;BME280;2964;42.144;24.730;2023-06-24T00:56:31;147290.59;;;23.08;78.87
5877;BME280;2964;42.144;24.730;2023-06-24T00:58:59;147272.81;;;23.01;78.90
5877;BME280;2964;42.144;24.730;2023-06-24T01:01:28;147244.94;;;22.90;78.70
5877;BME280;2964;42.144;24.730;2023-06-24T01:03:58;147269.00;;;23.00;77.43
5877;BME280;2964;42.144;24.730;2023-06-24T01:06:26;147252.53;;;22.93;77.00
5877;BME280;2964;42.144;24.730;2023-06-24T01:08:54;147265.22;;;22.98;76.38
5877;BME280;2964;42.144;24.730;2023-06-24T01:11:21;147256.34;;;22.94;76.40
5877;BME280;2964;42.144;24.730;2023-06-24T01:13:48;147269.00;;;23.00;76.77
5877;BME280;2964;42.144;24.730;2023-06-24T01:16:21;147246.19;;;22.90;76.07
5877;BME280;2964;42.144;24.730;2023-06-24T01:18:57;147230.97;;;22.84;75.55
5877;BME280;2964;42.144;24.730;2023-06-24T01:21:34;147205.63;;;22.74;75.34
5877;BME280;2964;42.144;24.730;2023-06-24T01:24:28;147196.78;;;22.70;75.38
5877;BME280;2964;42.144;24.730;2023-06-24T01:27:19;147191.69;;;22.68;74.39
5877;BME280;2964;42.144;24.730;2023-06-24T01:30:09;147175.22;;;22.62;73.70
5877;BME280;2964;42.144;24.730;2023-06-24T01:32:44;147160.00;;;22.55;73.04
5877;BME280;2964;42.144;24.730;2023-06-24T01:35:20;147151.13;;;22.52;72.75
5877;BME280;2964;42.144;24.730;2023-06-24T01:37:50;147152.41;;;22.52;72.41
5877;BME280;2964;42.144;24.730;2023-06-24T01:40:22;147160.00;;;22.55;72.29
5877;BME280;2964;42.144;24.730;2023-06-24T01:42:50;147134.66;;;22.45;72.49
5877;BME280;2964;42.144;24.730;2023-06-24T01:45:21;147118.19;;;22.39;72.90
5877;BME280;2964;42.144;24.730;2023-06-24T01:48:00;147097.94;;;22.30;73.36
5877;BME280;2964;42.144;24.730;2023-06-24T01:50:31;147116.94;;;22.38;73.49
5877;BME280;2964;42.144;24.730;2023-06-24T01:53:01;147054.78;;;22.13;73.94
5877;BME280;2964;42.144;24.730;2023-06-24T01:55:31;147091.56;;;22.28;74.20
5877;BME280;2964;42.144;24.730;2023-06-24T01:58:01;147091.56;;;22.28;74.59
5877;BME280;2964;42.144;24.730;2023-06-24T02:00:29;147100.44;;;22.31;74.15
5877;BME280;2964;42.144;24.730;2023-06-24T02:02:57;147071.25;;;22.20;74.47
5877;BME280;2964;42.144;24.730;2023-06-24T02:05:25;147076.31;;;22.22;74.58
5877;BME280;2964;42.144;24.730;2023-06-24T02:07:53;147023.09;;;22.00;74.93
5877;BME280;2964;42.144;24.730;2023-06-24T02:10:22;147018.03;;;21.98;75.12
5877;BME280;2964;42.144;24.730;2023-06-24T02:12:50;147039.59;;;22.07;74.85
5877;BME280;2964;42.144;24.730;2023-06-24T02:15:19;147040.84;;;22.07;74.51
5877;BME280;2964;42.144;24.730;2023-06-24T02:17:49;147024.41;;;22.01;74.50
5877;BME280;2964;42.144;24.730;2023-06-24T02:20:19;147019.34;;;21.98;74.83
5877;BME280;2964;42.144;24.730;2023-06-24T02:22:47;146844.47;;;21.28;75.05
5877;BME280;2964;42.144;24.730;2023-06-24T02:27:41;146961.06;;;21.75;76.21
5877;BME280;2964;42.144;24.730;2023-06-24T02:30:09;146971.19;;;21.79;75.29
5877;BME280;2964;42.144;24.730;2023-06-24T02:32:36;146977.50;;;21.82;75.27
5877;BME280;2964;42.144;24.730;2023-06-24T02:35:04;146972.44;;;21.79;76.00
5877;BME280;2964;42.144;24.730;2023-06-24T02:37:34;146990.19;;;21.87;75.15
5877;BME280;2964;42.144;24.730;2023-06-24T02:40:01;147001.59;;;21.91;75.03
5877;BME280;2964;42.144;24.730;2023-06-24T02:42:29;146957.25;;;21.73;75.50
5877;BME280;2964;42.144;24.730;2023-06-24T02:44:56;146964.88;;;21.76;75.53
5877;BME280;2964;42.144;24.730;2023-06-24T02:47:23;146920.53;;;21.58;76.38
5877;BME280;2964;42.144;24.730;2023-06-24T02:49:51;146981.31;;;21.83;75.75
5877;BME280;2964;42.144;24.730;2023-06-24T02:52:19;146924.34;;;21.60;76.14
5877;BME280;2964;42.144;24.730;2023-06-24T02:54:48;146978.81;;;21.82;75.62
5877;BME280;2964;42.144;24.730;2023-06-24T02:57:15;146931.91;;;21.63;76.47
5877;BME280;2964;42.144;24.730;2023-06-24T02:59:44;146930.66;;;21.63;75.69
5877;BME280;2964;42.144;24.730;2023-06-24T03:02:12;146966.13;;;21.77;75.45
5877;BME280;2964;42.144;24.730;2023-06-24T03:04:38;146967.38;;;21.77;75.27
5877;BME280;2964;42.144;24.730;2023-06-24T03:07:07;146959.75;;;21.74;74.98
5877;BME280;2964;42.144;24.730;2023-06-24T03:09:35;146911.66;;;21.55;75.87
5877;BME280;2964;42.144;24.730;2023-06-24T03:12:05;146863.47;;;21.35;75.94
5877;BME280;2964;42.144;24.730;2023-06-24T03:14:32;146904.03;;;21.52;75.86
5877;BME280;2964;42.144;24.730;2023-06-24T03:16:59;146925.59;;;21.61;75.76
5877;BME280;2964;42.144;24.730;2023-06-24T03:19:25;146924.34;;;21.60;75.35
5877;BME280;2964;42.144;24.730;2023-06-24T03:21:52;146935.72;;;21.65;75.17
5877;BME280;2964;42.144;24.730;2023-06-24T03:24:19;146931.91;;;21.63;75.47
5877;BME280;2964;42.144;24.730;2023-06-24T03:26:45;146929.41;;;21.62;74.85
5877;BME280;2964;42.144;24.730;2023-06-24T03:29:13;146805.25;;;21.12;74.86
5877;BME280;2964;42.144;24.730;2023-06-24T03:31:40;146915.47;;;21.56;75.08
5877;BME280;2964;42.144;24.730;2023-06-24T03:34:10;146947.13;;;21.69;74.56
5877;BME280;2964;42.144;24.730;2023-06-24T03:36:38;146940.78;;;21.67;75.05
5877;BME280;2964;42.144;24.730;2023-06-24T03:39:05;146971.19;;;21.79;74.17
5877;BME280;2964;42.144;24.730;2023-06-24T03:41:32;146977.50;;;21.82;74.25
5877;BME280;2964;42.144;24.730;2023-06-24T03:43:58;146964.88;;;21.76;74.32
5877;BME280;2964;42.144;24.730;2023-06-24T03:46:26;146956.00;;;21.73;74.21
5877;BME280;2964;42.144;24.730;2023-06-24T03:48:58;146914.16;;;21.56;74.84
5877;BME280;2964;42.144;24.730;2023-06-24T03:51:25;146935.72;;;21.65;75.23
5877;BME280;2964;42.144;24.730;2023-06-24T03:53:52;146968.63;;;21.78;74.56
5877;BME280;2964;42.144;24.730;2023-06-24T03:56:18;146891.38;;;21.47;75.75
5877;BME280;2964;42.144;24.730;2023-06-24T03:58:45;146944.56;;;21.68;74.98
5877;BME280;2964;42.144;24.730;2023-06-24T04:01:11;146914.16;;;21.56;74.52
5877;BME280;2964;42.144;24.730;2023-06-24T04:03:39;146907.84;;;21.53;75.26
5877;BME280;2964;42.144;24.730;2023-06-24T04:06:06;146944.56;;;21.68;73.64
5877;BME280;2964;42.144;24.730;2023-06-24T04:08:33;146967.38;;;21.77;73.07
5877;BME280;2964;42.144;24.730;2023-06-24T04:10:59;146964.88;;;21.76;73.04
5877;BME280;2964;42.144;24.730;2023-06-24T04:13:28;147025.66;;;22.01;72.18
5877;BME280;2964;42.144;24.730;2023-06-24T04:15:55;147104.25;;;22.33;70.90
5877;BME280;2964;42.144;24.730;2023-06-24T04:18:22;147205.63;;;22.74;69.25
5877;BME280;2964;42.144;24.730;2023-06-24T04:20:50;147272.81;;;23.01;67.92
5877;BME280;2964;42.144;24.730;2023-06-24T04:23:16;147355.25;;;23.35;66.08
5877;BME280;2964;42.144;24.730;2023-06-24T04:25:43;147389.53;;;23.48;64.91
5877;BME280;2964;42.144;24.730;2023-06-24T04:28:10;147446.56;;;23.71;64.29
5877;BME280;2964;42.144;24.730;2023-06-24T04:30:36;147636.91;;;24.48;62.36
5877;BME280;2964;42.144;24.730;2023-06-24T04:33:04;147760.06;;;24.98;60.53
5877;BME280;2964;42.144;24.730;2023-06-24T04:35:30;147785.50;;;25.09;59.95
5877;BME280;2964;42.144;24.730;2023-06-24T04:37:59;147937.88;;;25.70;59.52
5877;BME280;2964;42.144;24.730;2023-06-24T04:40:25;148138.63;;;26.51;57.78
5877;BME280;2964;42.144;24.730;2023-06-24T04:42:52;148347.19;;;27.36;55.08
5877;BME280;2964;42.144;24.730;2023-06-24T04:45:19;148247.97;;;26.95;54.62
5877;BME280;2964;42.144;24.730;2023-06-24T04:47:46;148259.38;;;27.00;52.21
5877;BME280;2964;42.144;24.730;2023-06-24T04:50:13;148175.53;;;26.66;52.75
5877;BME280;2964;42.144;24.730;2023-06-24T04:52:39;148226.34;;;26.87;52.06
5877;BME280;2964;42.144;24.730;2023-06-24T04:55:08;148261.94;;;27.01;51.10
5877;BME280;2964;42.144;24.730;2023-06-24T04:57:35;148366.25;;;27.43;50.53
5877;BME280;2964;42.144;24.730;2023-06-24T05:00:02;148558.31;;;28.21;53.85
5877;BME280;2964;42.144;24.730;2023-06-24T05:02:30;148676.69;;;28.68;49.50
5877;BME280;2964;42.144;24.730;2023-06-24T05:04:56;148707.19;;;28.81;46.41
5877;BME280;2964;42.144;24.730;2023-06-24T05:07:23;148618.09;;;28.45;49.30
5877;BME280;2964;42.144;24.730;2023-06-24T05:09:50;148773.38;;;29.07;49.46
5877;BME280;2964;42.144;24.730;2023-06-24T05:12:18;148796.34;;;29.17;46.39
5877;BME280;2964;42.144;24.730;2023-06-24T05:14:49;148656.28;;;28.60;48.46
5877;BME280;2964;42.144;24.730;2023-06-24T05:17:16;148937.69;;;29.74;47.71
5877;BME280;2964;42.144;24.730;2023-06-24T05:19:42;149169.50;;;30.67;46.33
5877;BME280;2964;42.144;24.730;2023-06-24T05:22:09;149019.19;;;30.07;45.40
5877;BME280;2964;42.144;24.730;2023-06-24T05:24:36;148888.00;;;29.54;47.86
5877;BME280;2964;42.144;24.730;2023-06-24T05:27:04;149260.00;;;31.04;47.75
5877;BME280;2964;42.144;24.730;2023-06-24T05:29:33;149594.06;;;32.38;45.05
5877;BME280;2964;42.144;24.730;2023-06-24T05:31:59;149543.06;;;32.18;41.62
5877;BME280;2964;42.144;24.730;2023-06-24T05:34:28;149051.03;;;30.19;45.39
5877;BME280;2964;42.144;24.730;2023-06-24T05:36:55;148839.59;;;29.34;48.85
5877;BME280;2964;42.144;24.730;2023-06-24T05:39:22;149388.75;;;31.55;44.56
5877;BME280;2964;42.144;24.730;2023-06-24T05:41:48;149762.47;;;33.06;42.93
5877;BME280;2964;42.144;24.730;2023-06-24T05:44:15;149951.41;;;33.82;41.63
5877;BME280;2964;42.144;24.730;2023-06-24T05:46:44;149794.41;;;33.19;41.65
5877;BME280;2964;42.144;24.730;2023-06-24T05:49:11;149890.13;;;33.57;40.60
5877;BME280;2964;42.144;24.730;2023-06-24T05:51:38;149777.81;;;33.12;43.30
5877;BME280;2964;42.144;24.730;2023-06-24T05:54:04;149719.09;;;32.88;43.18
5877;BME280;2964;42.144;24.730;2023-06-24T05:56:33;149905.41;;;33.63;42.60
5877;BME280;2964;42.144;24.730;2023-06-24T05:58:59;149948.88;;;33.81;40.81
5877;BME280;2964;42.144;24.730;2023-06-24T06:01:26;149988.41;;;33.97;39.44
5877;BME280;2964;42.144;24.730;2023-06-24T06:03:54;149451.22;;;31.81;42.81
5877;BME280;2964;42.144;24.730;2023-06-24T06:06:21;149578.78;;;32.32;43.92
5877;BME280;2964;42.144;24.730;2023-06-24T06:08:47;149566.03;;;32.27;46.20
5877;BME280;2964;42.144;24.730;2023-06-24T06:11:14;148987.34;;;29.94;48.38
5877;BME280;2964;42.144;24.730;2023-06-24T06:13:41;149400.25;;;31.60;47.23
5877;BME280;2964;42.144;24.730;2023-06-24T06:16:07;148903.25;;;29.60;49.86
5877;BME280;2964;42.144;24.730;2023-06-24T06:18:34;149336.47;;;31.34;49.69
5877;BME280;2964;42.144;24.730;2023-06-24T06:21:02;149520.13;;;32.08;47.24
5877;BME280;2964;42.144;24.730;2023-06-24T06:23:29;149364.50;;;31.46;47.76
5877;BME280;2964;42.144;24.730;2023-06-24T06:25:55;149471.59;;;31.89;47.43
5877;BME280;2964;42.144;24.730;2023-06-24T06:28:22;149451.22;;;31.81;48.57
5877;BME280;2964;42.144;24.730;2023-06-24T06:30:49;149031.88;;;30.12;51.33
5877;BME280;2964;42.144;24.730;2023-06-24T06:33:16;149015.38;;;30.05;53.47
5877;BME280;2964;42.144;24.730;2023-06-24T06:35:42;149367.06;;;31.47;49.90
5877;BME280;2964;42.144;24.730;2023-06-24T06:38:10;149397.69;;;31.59;47.76
5877;BME280;2964;42.144;24.730;2023-06-24T06:40:37;149461.41;;;31.85;48.47
5877;BME280;2964;42.144;24.730;2023-06-24T06:43:04;149919.50;;;33.69;43.60
5877;BME280;2964;42.144;24.730;2023-06-24T06:45:30;150155.72;;;34.64;44.84
5877;BME280;2964;42.144;24.730;2023-06-24T06:47:57;150712.94;;;36.88;38.83
5877;BME280;2964;42.144;24.730;2023-06-24T06:50:24;150831.88;;;37.36;38.09
5877;BME280;2964;42.144;24.730;2023-06-24T06:52:50;150640.03;;;36.59;38.91
5877;BME280;2964;42.144;24.730;2023-06-24T06:55:18;150716.78;;;36.89;37.49
5877;BME280;2964;42.144;24.730;2023-06-24T06:57:45;150807.63;;;37.26;36.24
5877;BME280;2964;42.144;24.730;2023-06-24T07:00:12;151054.50;;;38.25;36.50
5877;BME280;2964;42.144;24.730;2023-06-24T07:02:39;150002.44;;;34.02;39.61
5877;BME280;2964;42.144;24.730;2023-06-24T07:05:07;150915.06;;;37.69;36.15
5877;BME280;2964;42.144;24.730;2023-06-24T07:07:36;151334.81;;;39.37;31.28
5877;BME280;2964;42.144;24.730;2023-06-24T07:10:03;150979.00;;;37.95;33.74
5877;BME280;2964;42.144;24.730;2023-06-24T07:12:31;150953.41;;;37.84;34.23
5877;BME280;2964;42.144;24.730;2023-06-24T07:14:57;151119.72;;;38.51;33.59
5877;BME280;2964;42.144;24.730;2023-06-24T07:17:24;150963.66;;;37.89;35.48
5877;BME280;2964;42.144;24.730;2023-06-24T07:19:50;151264.44;;;39.09;32.29
5877;BME280;2964;42.144;24.730;2023-06-24T07:22:17;151168.41;;;38.71;33.35
5877;BME280;2964;42.144;24.730;2023-06-24T07:24:44;150922.75;;;37.72;31.17
5877;BME280;2964;42.144;24.730;2023-06-24T07:27:10;150553.13;;;36.24;34.62
5877;BME280;2964;42.144;24.730;2023-06-24T07:29:38;150684.81;;;36.77;33.75
5877;BME280;2964;42.144;24.730;2023-06-24T07:32:06;151140.28;;;38.59;31.90
5877;BME280;2964;42.144;24.730;2023-06-24T07:34:33;151521.84;;;40.12;30.21
5877;BME280;2964;42.144;24.730;2023-06-24T07:37:00;151528.22;;;40.15;32.30
5877;BME280;2964;42.144;24.730;2023-06-24T07:39:27;151347.63;;;39.43;31.28
5877;BME280;2964;42.144;24.730;2023-06-24T07:41:53;150692.50;;;36.80;33.48
5877;BME280;2964;42.144;24.730;2023-06-24T07:44:20;151416.78;;;39.70;30.26
5877;BME280;2964;42.144;24.730;2023-06-24T07:46:48;151688.41;;;40.79;29.76
5877;BME280;2964;42.144;24.730;2023-06-24T07:49:16;151579.47;;;40.36;27.34
5877;BME280;2964;42.144;24.730;2023-06-24T07:51:43;151035.31;;;38.17;31.20
5877;BME280;2964;42.144;24.730;2023-06-24T07:54:10;151087.78;;;38.38;32.02
5877;BME280;2964;42.144;24.730;2023-06-24T07:56:37;151332.28;;;39.36;29.35
5877;BME280;2964;42.144;24.730;2023-06-24T07:59:04;151095.44;;;38.41;30.20
5877;BME280;2964;42.144;24.730;2023-06-24T08:01:30;150886.88;;;37.58;32.94
5877;BME280;2964;42.144;24.730;2023-06-24T08:03:58;151288.75;;;39.19;32.33
5877;BME280;2964;42.144;24.730;2023-06-24T08:06:25;151740.91;;;41.00;28.97
5877;BME280;2964;42.144;24.730;2023-06-24T08:08:52;151920.34;;;41.72;25.58
5877;BME280;2964;42.144;24.730;2023-06-24T08:11:19;151468.06;;;39.91;28.98
5877;BME280;2964;42.144;24.730;2023-06-24T08:13:47;151095.44;;;38.41;30.55
5877;BME280;2964;42.144;24.730;2023-06-24T08:16:16;151420.66;;;39.72;28.13
5877;BME280;2964;42.144;24.730;2023-06-24T08:18:44;151266.97;;;39.10;28.66
5877;BME280;2964;42.144;24.730;2023-06-24T08:21:12;151055.81;;;38.26;29.58
5877;BME280;2964;42.144;24.730;2023-06-24T08:23:39;150707.84;;;36.86;33.24
5877;BME280;2964;42.144;24.730;2023-06-24T08:26:06;151096.69;;;38.42;30.59
5877;BME280;2964;42.144;24.730;2023-06-24T08:28:34;151347.63;;;39.43;27.55
5877;BME280;2964;42.144;24.730;2023-06-24T08:31:00;151447.53;;;39.83;27.44
5877;BME280;2964;42.144;24.730;2023-06-24T08:33:27;151509.03;;;40.07;29.09
5877;BME280;2964;42.144;24.730;2023-06-24T08:35:53;151438.56;;;39.79;27.25
5877;BME280;2964;42.144;24.730;2023-06-24T08:38:21;151251.63;;;39.04;30.60
5877;BME280;2964;42.144;24.730;2023-06-24T08:40:58;151269.56;;;39.11;29.47
5877;BME280;2964;42.144;24.730;2023-06-24T08:43:29;151283.63;;;39.17;28.46
5877;BME280;2964;42.144;24.730;2023-06-24T08:45:55;151526.94;;;40.14;27.00
5877;BME280;2964;42.144;24.730;2023-06-24T08:48:22;151434.72;;;39.78;27.23
5877;BME280;2964;42.144;24.730;2023-06-24T08:50:51;151391.19;;;39.60;28.01
5877;BME280;2964;42.144;24.730;2023-06-24T08:53:21;151537.19;;;40.19;28.45
5877;BME280;2964;42.144;24.730;2023-06-24T08:55:49;151233.66;;;38.97;29.03
5877;BME280;2964;42.144;24.730;2023-06-24T08:58:19;151411.69;;;39.68;30.14
5877;BME280;2964;42.144;24.730;2023-06-24T09:00:46;151539.78;;;40.20;29.68
5877;BME280;2964;42.144;24.730;2023-06-24T09:03:13;151596.16;;;40.42;28.62
5877;BME280;2964;42.144;24.730;2023-06-24T09:05:39;151993.41;;;42.01;26.45
5877;BME280;2964;42.144;24.730;2023-06-24T09:08:06;151988.28;;;41.99;26.58
5877;BME280;2964;42.144;24.730;2023-06-24T09:10:35;151588.44;;;40.39;27.97
5877;BME280;2964;42.144;24.730;2023-06-24T09:13:03;151734.50;;;40.98;27.02
5877;BME280;2964;42.144;24.730;2023-06-24T09:15:30;151057.06;;;38.26;30.59
5877;BME280;2964;42.144;24.730;2023-06-24T09:17:57;151433.47;;;39.77;29.42
5877;BME280;2964;42.144;24.730;2023-06-24T09:20:26;151539.78;;;40.20;26.14
5877;BME280;2964;42.144;24.730;2023-06-24T09:22:57;151497.53;;;40.03;28.16
5877;BME280;2964;42.144;24.730;2023-06-24T09:25:24;152274.28;;;43.14;25.64
5877;BME280;2964;42.144;24.730;2023-06-24T09:27:52;151895.97;;;41.62;25.41
5877;BME280;2964;42.144;24.730;2023-06-24T09:30:22;151698.63;;;40.83;27.56
5877;BME280;2964;42.144;24.730;2023-06-24T09:32:49;151933.19;;;41.77;25.55
5877;BME280;2964;42.144;24.730;2023-06-24T09:35:18;151608.97;;;40.47;26.44
5877;BME280;2964;42.144;24.730;2023-06-24T09:37:49;151730.66;;;40.96;26.51
5877;BME280;2964;42.144;24.730;2023-06-24T09:40:16;151685.81;;;40.78;27.21
5877;BME280;2964;42.144;24.730;2023-06-24T09:42:49;151159.47;;;38.67;29.07
5877;BME280;2964;42.144;24.730;2023-06-24T09:45:21;151167.16;;;38.70;31.20
5877;BME280;2964;42.144;24.730;2023-06-24T09:47:48;151254.22;;;39.05;28.35
5877;BME280;2964;42.144;24.730;2023-06-24T09:50:15;151512.88;;;40.09;28.46
5877;BME280;2964;42.144;24.730;2023-06-24T09:52:43;151471.91;;;39.92;28.87
5877;BME280;2964;42.144;24.730;2023-06-24T09:55:12;151571.78;;;40.32;27.20
5877;BME280;2964;42.144;24.730;2023-06-24T09:57:42;151346.38;;;39.42;28.78
5877;BME280;2964;42.144;24.730;2023-06-24T10:00:12;151521.84;;;40.12;30.50
5877;BME280;2964;42.144;24.730;2023-06-24T10:02:43;151008.41;;;38.07;30.45
5877;BME280;2964;42.144;24.730;2023-06-24T10:05:10;150834.41;;;37.37;31.58
5877;BME280;2964;42.144;24.730;2023-06-24T10:07:39;150899.72;;;37.63;31.76
5877;BME280;2964;42.144;24.730;2023-06-24T10:10:07;150434.25;;;35.76;34.21
5877;BME280;2964;42.144;24.730;2023-06-24T10:12:35;150248.94;;;35.02;35.94
5877;BME280;2964;42.144;24.730;2023-06-24T10:15:03;149984.56;;;33.95;38.53
5877;BME280;2964;42.144;24.730;2023-06-24T10:17:30;149717.81;;;32.88;40.13
5877;BME280;2964;42.144;24.730;2023-06-24T10:20:03;149645.13;;;32.59;41.05
5877;BME280;2964;42.144;24.730;2023-06-24T10:22:30;149671.91;;;32.69;42.00
5877;BME280;2964;42.144;24.730;2023-06-24T10:24:59;149645.13;;;32.59;43.39
5877;BME280;2964;42.144;24.730;2023-06-24T10:27:26;149604.25;;;32.42;41.94
5877;BME280;2964;42.144;24.730;2023-06-24T10:30:02;149530.31;;;32.12;43.73
5877;BME280;2964;42.144;24.730;2023-06-24T10:32:39;149427.03;;;31.71;43.39
5877;BME280;2964;42.144;24.730;2023-06-24T10:35:21;149277.84;;;31.11;45.38
5877;BME280;2964;42.144;24.730;2023-06-24T10:37:54;149317.38;;;31.27;44.33
5877;BME280;2964;42.144;24.730;2023-06-24T10:40:34;149347.91;;;31.39;43.07
5877;BME280;2964;42.144;24.730;2023-06-24T10:43:02;149308.44;;;31.23;44.76
5877;BME280;2964;42.144;24.730;2023-06-24T10:45:29;149341.56;;;31.36;43.85
5877;BME280;2964;42.144;24.730;2023-06-24T10:47:56;149344.13;;;31.38;44.07
5877;BME280;2964;42.144;24.730;2023-06-24T10:50:26;149214.09;;;30.85;44.89
5877;BME280;2964;42.144;24.730;2023-06-24T10:52:53;149205.16;;;30.82;46.28
5877;BME280;2964;42.144;24.730;2023-06-24T10:55:22;149231.97;;;30.92;46.86
5877;BME280;2964;42.144;24.730;2023-06-24T10:57:50;149220.50;;;30.88;47.42
5877;BME280;2964;42.144;24.730;2023-06-24T11:00:17;149252.38;;;31.01;45.90
5877;BME280;2964;42.144;24.730;2023-06-24T11:02:44;149242.16;;;30.96;45.58
5877;BME280;2964;42.144;24.730;2023-06-24T11:05:10;149230.72;;;30.92;46.30
5877;BME280;2964;42.144;24.730;2023-06-24T11:07:39;149228.16;;;30.91;46.19
5877;BME280;2964;42.144;24.730;2023-06-24T11:10:07;149221.75;;;30.88;45.87
5877;BME280;2964;42.144;24.730;2023-06-24T11:12:35;149279.13;;;31.11;45.45
5877;BME280;2964;42.144;24.730;2023-06-24T11:15:03;149242.16;;;30.96;46.00
5877;BME280;2964;42.144;24.730;2023-06-24T11:17:32;149212.84;;;30.85;46.04
5877;BME280;2964;42.144;24.730;2023-06-24T11:20:00;149239.63;;;30.95;46.84
5877;BME280;2964;42.144;24.730;2023-06-24T11:22:27;149126.19;;;30.50;46.92
5877;BME280;2964;42.144;24.730;2023-06-24T11:24:55;149234.56;;;30.93;46.13
5877;BME280;2964;42.144;24.730;2023-06-24T11:27:25;149252.38;;;31.01;46.71
5877;BME280;2964;42.144;24.730;2023-06-24T11:29:53;149249.81;;;31.00;47.30
5877;BME280;2964;42.144;24.730;2023-06-24T11:32:20;149252.38;;;31.01;47.06
5877;BME280;2964;42.144;24.730;2023-06-24T11:34:47;149253.66;;;31.01;46.90
5877;BME280;2964;42.144;24.730;2023-06-24T11:37:15;149277.84;;;31.11;47.38
5877;BME280;2964;42.144;24.730;2023-06-24T11:39:43;149266.41;;;31.06;47.58
5877;BME280;2964;42.144;24.730;2023-06-24T11:42:11;149286.78;;;31.14;48.01
5877;BME280;2964;42.144;24.730;2023-06-24T11:44:41;149274.03;;;31.09;47.54
5877;BME280;2964;42.144;24.730;2023-06-24T11:47:09;149298.25;;;31.19;47.10
5877;BME280;2964;42.144;24.730;2023-06-24T11:49:50;149290.59;;;31.16;46.96
5877;BME280;2964;42.144;24.730;2023-06-24T11:52:17;149225.59;;;30.90;46.33
5877;BME280;2964;42.144;24.730;2023-06-24T11:54:43;149295.69;;;31.18;45.84
5877;BME280;2964;42.144;24.730;2023-06-24T11:57:12;149309.69;;;31.24;46.91
5877;BME280;2964;42.144;24.730;2023-06-24T11:59:39;149309.69;;;31.24;46.77
5877;BME280;2964;42.144;24.730;2023-06-24T12:02:06;149340.31;;;31.36;46.54
5877;BME280;2964;42.144;24.730;2023-06-24T12:04:33;149368.38;;;31.47;47.37
5877;BME280;2964;42.144;24.730;2023-06-24T12:07:00;149387.50;;;31.55;46.96
5877;BME280;2964;42.144;24.730;2023-06-24T12:09:27;149418.09;;;31.67;46.09
5877;BME280;2964;42.144;24.730;2023-06-24T12:11:53;149401.50;;;31.61;45.08
5877;BME280;2964;42.144;24.730;2023-06-24T12:14:21;149429.53;;;31.72;45.10
5877;BME280;2964;42.144;24.730;2023-06-24T12:16:49;149453.81;;;31.82;44.73
5877;BME280;2964;42.144;24.730;2023-06-24T12:19:16;149438.47;;;31.75;45.58
5877;BME280;2964;42.144;24.730;2023-06-24T12:21:43;149353.06;;;31.41;44.44
5877;BME280;2964;42.144;24.730;2023-06-24T12:24:10;149393.84;;;31.58;44.79
5877;BME280;2964;42.144;24.730;2023-06-24T12:26:38;149433.38;;;31.73;44.70
5877;BME280;2964;42.144;24.730;2023-06-24T12:29:06;149456.31;;;31.83;44.26
5877;BME280;2964;42.144;24.730;2023-06-24T12:31:35;149405.34;;;31.62;44.31
5877;BME280;2964;42.144;24.730;2023-06-24T12:34:03;149407.91;;;31.63;44.42
5877;BME280;2964;42.144;24.730;2023-06-24T12:36:31;149427.03;;;31.71;44.59
5877;BME280;2964;42.144;24.730;2023-06-24T12:38:59;149461.41;;;31.85;45.79
5877;BME280;2964;42.144;24.730;2023-06-24T12:41:27;149438.47;;;31.75;45.17
5877;BME280;2964;42.144;24.730;2023-06-24T12:43:55;149464.00;;;31.86;45.57
5877;BME280;2964;42.144;24.730;2023-06-24T12:46:29;149499.69;;;32.00;45.34
5877;BME280;2964;42.144;24.730;2023-06-24T12:48:58;149504.78;;;32.02;45.27
5877;BME280;2964;42.144;24.730;2023-06-24T12:51:27;149550.72;;;32.21;44.72
5877;BME280;2964;42.144;24.730;2023-06-24T12:53:55;149531.63;;;32.13;44.16
5877;BME280;2964;42.144;24.730;2023-06-24T12:56:23;149523.94;;;32.10;43.78
5877;BME280;2964;42.144;24.730;2023-06-24T12:58:53;149522.69;;;32.09;43.78
5877;BME280;2964;42.144;24.730;2023-06-24T13:01:23;149517.53;;;32.07;43.59
5877;BME280;2964;42.144;24.730;2023-06-24T13:03:51;149525.22;;;32.10;43.08
5877;BME280;2964;42.144;24.730;2023-06-24T13:06:22;149495.88;;;31.99;43.58
5877;BME280;2964;42.144;24.730;2023-06-24T13:08:53;149513.75;;;32.06;43.65